Time;durP1;ratioP1;P1;durP2;ratioP2;P2;SDS_P1;SDS_P2;PMS_P1;PMS_P2;Temp;Humidity;BMP_temperature;BMP_pressure;BME280_temperature;BME280_humidity;BME280_pressure;Samples;Min_cycle;Max_cycle;Signal;HPM_P1;HPM_P2
2022/01/21 00:01:47;;;;;;;1.53;0.70;;;-9.10;99.90;;;;;;2220770;64;20150;-37
2022/01/21 00:04:14;;;;;;;2.83;1.13;;;-9.10;99.90;;;;;;2220471;64;20491;-38
2022/01/21 00:06:40;;;;;;;3.53;1.27;;;-9.20;99.90;;;;;;2220722;64;20626;-38
2022/01/21 00:09:07;;;;;;;1.90;0.60;;;-9.20;99.90;;;;;;2220695;64;20170;-36
2022/01/21 00:11:35;;;;;;;1.73;0.77;;;-9.20;99.90;;;;;;2220643;64;20084;-38
2022/01/21 00:14:02;;;;;;;3.03;1.10;;;-9.20;99.90;;;;;;2220669;64;20119;-36
2022/01/21 00:16:29;;;;;;;2.13;0.80;;;-9.20;99.90;;;;;;2220733;64;20176;-38
2022/01/21 00:19:08;;;;;;;3.23;1.23;;;-9.20;99.90;;;;;;2220642;64;20097;-36
2022/01/21 00:32:34;;;;;;;2.53;0.88;;;-9.30;99.90;;;;;;2220712;64;20169;-43
2022/01/21 00:35:01;;;;;;;3.30;1.20;;;-9.30;99.90;;;;;;2220624;64;20096;-40
2022/01/21 00:37:28;;;;;;;5.33;1.53;;;-9.30;99.90;;;;;;2220843;64;20099;-42
2022/01/21 00:39:57;;;;;;;4.47;1.40;;;-9.40;99.90;;;;;;2220571;64;20553;-41
2022/01/21 00:44:51;;;;;;;3.70;1.10;;;-9.40;99.90;;;;;;2220485;64;20173;-40
2022/01/21 00:47:17;;;;;;;9.30;1.47;;;-9.40;99.90;;;;;;2220688;64;20085;-39
2022/01/21 00:49:44;;;;;;;0.93;0.53;;;-9.40;99.90;;;;;;2220439;64;20549;-41
2022/01/21 00:52:10;;;;;;;3.30;0.90;;;-9.40;99.90;;;;;;2220488;64;20171;-37
2022/01/21 00:54:37;;;;;;;5.97;1.47;;;-9.40;99.90;;;;;;2220589;64;20092;-40
2022/01/21 00:57:04;;;;;;;2.37;1.10;;;-9.40;99.90;;;;;;2220543;64;20088;-41
2022/01/21 00:59:31;;;;;;;6.00;1.17;;;-9.40;99.90;;;;;;2216727;64;20574;-40
2022/01/21 01:01:58;;;;;;;4.23;0.60;;;-9.40;99.90;;;;;;2220578;64;20096;-35
2022/01/21 01:04:25;;;;;;;4.93;0.77;;;-9.50;99.90;;;;;;2220206;64;20111;-38
2022/01/21 01:06:51;;;;;;;2.70;1.27;;;-9.50;99.90;;;;;;2216685;64;20073;-35
2022/01/21 01:09:18;;;;;;;5.40;1.50;;;-9.50;99.90;;;;;;2220432;64;20156;-36
2022/01/21 01:11:55;;;;;;;2.93;1.10;;;-9.50;99.90;;;;;;2220541;64;20085;-37
2022/01/21 01:20:03;;;;;;;3.57;0.97;;;-9.50;99.90;;;;;;2220573;64;19976;-36
2022/01/21 01:22:41;;;;;;;4.23;1.03;;;-9.50;99.90;;;;;;2220496;64;20552;-37
2022/01/21 01:27:53;;;;;;;6.63;1.60;;;-9.60;99.90;;;;;;2224257;64;20560;-39
2022/01/21 01:30:21;;;;;;;8.20;1.47;;;-9.60;99.90;;;;;;2224327;64;20081;-38
2022/01/21 01:32:48;;;;;;;2.10;0.97;;;-9.60;99.90;;;;;;2224488;64;20088;-36
2022/01/21 01:35:17;;;;;;;4.33;1.20;;;-9.50;99.90;;;;;;2220524;64;20091;-40
2022/01/21 01:40:51;;;;;;;3.85;1.08;;;-9.60;99.90;;;;;;2221730;64;20159;-37
2022/01/21 01:51:24;;;;;;;6.95;1.77;;;-9.50;99.90;;;;;;2224844;64;20096;-36
2022/01/21 01:54:08;;;;;;;2.07;0.80;;;-9.50;99.90;;;;;;2221054;64;20092;-36
2022/01/21 01:56:38;;;;;;;3.90;0.93;;;-9.50;99.90;;;;;;2224915;64;20098;-36
2022/01/21 01:59:09;;;;;;;4.57;1.10;;;-9.40;99.90;;;;;;2220961;64;20092;-36
2022/01/21 02:01:35;;;;;;;0.60;0.50;;;-9.40;99.90;;;;;;2221180;64;20080;-37
2022/01/21 02:04:02;;;;;;;0.93;0.70;;;-9.40;99.90;;;;;;2224817;64;20149;-37
2022/01/21 02:06:28;;;;;;;7.63;1.17;;;-9.40;99.90;;;;;;2225016;64;20099;-36
2022/01/21 02:08:55;;;;;;;7.07;1.87;;;-9.50;99.90;;;;;;2217841;64;20100;-35
2022/01/21 02:11:21;;;;;;;1.93;0.63;;;-9.50;99.90;;;;;;2225015;64;20184;-36
2022/01/21 02:13:55;;;;;;;10.17;2.53;;;-9.50;99.90;;;;;;2221051;64;20084;-37
2022/01/21 02:21:37;;;;;;;4.90;0.80;;;-9.50;99.90;;;;;;2224866;64;20330;-38
2022/01/21 02:24:15;;;;;;;4.20;2.17;;;-9.50;99.90;;;;;;2224950;64;20225;-38
2022/01/21 02:26:41;;;;;;;6.47;2.20;;;-9.50;99.90;;;;;;2220962;64;20099;-37
2022/01/21 02:29:09;;;;;;;5.73;1.40;;;-9.50;99.90;;;;;;2220907;64;20548;-36
2022/01/21 02:31:37;;;;;;;5.37;1.73;;;-9.50;99.90;;;;;;2220925;64;20088;-41
2022/01/21 02:34:04;;;;;;;10.00;2.60;;;-9.40;99.90;;;;;;2217113;64;20085;-35
2022/01/21 02:36:31;;;;;;;8.13;2.43;;;-9.30;99.90;;;;;;2220695;64;20476;-37
2022/01/21 02:38:57;;;;;;;3.47;1.03;;;-9.30;99.90;;;;;;2216938;64;20104;-37
2022/01/21 02:41:24;;;;;;;2.70;0.87;;;-9.30;99.90;;;;;;2220703;64;20107;-36
2022/01/21 02:43:51;;;;;;;3.03;1.00;;;-9.20;99.90;;;;;;2216988;64;20533;-35
2022/01/21 02:46:19;;;;;;;3.80;1.30;;;-9.20;99.90;;;;;;2216878;64;20108;-37
2022/01/21 02:48:45;;;;;;;5.67;1.37;;;-9.20;99.90;;;;;;2220516;64;20095;-36
2022/01/21 02:51:12;;;;;;;1.77;0.50;;;-9.10;99.90;;;;;;2220855;64;20842;-37
2022/01/21 02:56:19;;;;;;;5.73;1.80;;;-9.20;99.90;;;;;;2220826;64;20165;-40
2022/01/21 02:58:46;;;;;;;4.17;0.63;;;-9.20;99.90;;;;;;2220974;64;20103;-36
2022/01/21 03:01:14;;;;;;;2.63;0.93;;;-9.20;99.90;;;;;;2220758;64;20092;-39
2022/01/21 03:03:42;;;;;;;3.37;1.00;;;-9.20;99.90;;;;;;2220676;64;20544;-39
2022/01/21 03:06:08;;;;;;;2.87;1.00;;;-9.10;99.90;;;;;;2220925;64;20119;-40
2022/01/21 03:08:35;;;;;;;4.17;1.40;;;-9.10;99.90;;;;;;2216963;64;20097;-36
2022/01/21 03:11:01;;;;;;;9.97;1.33;;;-9.10;99.90;;;;;;2220985;64;20174;-36
2022/01/21 03:13:28;;;;;;;3.37;1.00;;;-9.10;99.90;;;;;;2220766;64;20100;-36
2022/01/21 03:15:54;;;;;;;4.07;1.30;;;-9.10;99.90;;;;;;2220757;64;20556;-36
2022/01/21 03:18:21;;;;;;;5.13;1.30;;;-9.00;99.90;;;;;;2209653;64;20603;-36
2022/01/21 03:20:47;;;;;;;8.60;2.13;;;-9.00;99.90;;;;;;2220749;64;20587;-37
2022/01/21 03:23:17;;;;;;;3.80;1.03;;;-9.00;99.90;;;;;;2220606;64;20197;-38
2022/01/21 03:25:44;;;;;;;1.67;0.80;;;-8.90;99.90;;;;;;2222988;64;20102;-37
2022/01/21 03:28:11;;;;;;;4.13;1.10;;;-8.90;99.90;;;;;;2220712;64;20525;-41
2022/01/21 03:30:38;;;;;;;2.63;1.00;;;-8.90;99.90;;;;;;2224805;64;20483;-38
2022/01/21 03:33:04;;;;;;;3.10;0.97;;;-8.90;99.90;;;;;;2224440;64;20479;-38
2022/01/21 03:35:31;;;;;;;6.60;1.87;;;-8.80;99.90;;;;;;2224703;64;20101;-36
2022/01/21 03:37:58;;;;;;;3.30;0.83;;;-8.80;99.90;;;;;;2224544;64;20155;-38
2022/01/21 03:40:25;;;;;;;3.23;1.00;;;-8.80;99.90;;;;;;2224596;64;20091;-37
2022/01/21 03:42:51;;;;;;;1.77;0.67;;;-8.80;99.90;;;;;;2224481;64;20268;-37
2022/01/21 03:45:18;;;;;;;3.87;0.90;;;-8.80;99.90;;;;;;2224643;64;20165;-36
2022/01/21 03:47:44;;;;;;;5.27;1.43;;;-8.80;99.90;;;;;;2224280;64;20088;-39
2022/01/21 03:52:56;;;;;;;3.33;0.77;;;-8.70;99.90;;;;;;2224525;64;20155;-37
2022/01/21 03:55:23;;;;;;;2.37;0.77;;;-8.60;99.90;;;;;;2224471;64;20152;-37
2022/01/21 03:57:50;;;;;;;3.33;0.93;;;-8.60;99.90;;;;;;2224719;64;20103;-35
2022/01/21 04:00:22;;;;;;;9.03;0.63;;;-8.60;99.90;;;;;;2224479;64;20198;-38
2022/01/21 04:02:49;;;;;;;4.73;2.10;;;-8.60;99.90;;;;;;2224612;64;20088;-38
2022/01/21 04:05:16;;;;;;;7.10;2.00;;;-8.60;99.90;;;;;;2224276;64;20559;-37
2022/01/21 04:07:42;;;;;;;8.17;2.23;;;-8.60;99.90;;;;;;2224498;64;20460;-36
2022/01/21 04:10:09;;;;;;;3.87;1.50;;;-8.60;99.90;;;;;;2220638;64;20098;-36
2022/01/21 04:12:35;;;;;;;6.93;2.20;;;-8.60;99.90;;;;;;2224508;64;20480;-38
2022/01/21 04:15:02;;;;;;;0.57;0.23;;;-8.60;99.90;;;;;;2224422;64;20096;-36
2022/01/21 04:17:29;;;;;;;3.83;0.90;;;-8.60;99.90;;;;;;2224440;64;20084;-36
2022/01/21 04:19:55;;;;;;;4.97;1.30;;;-8.70;99.90;;;;;;2224528;64;20084;-37
2022/01/21 04:22:22;;;;;;;1.53;0.70;;;-8.70;99.90;;;;;;2224545;64;20552;-38
2022/01/21 04:24:49;;;;;;;4.37;1.07;;;-8.70;99.90;;;;;;2223479;64;20096;-38
2022/01/21 04:27:16;;;;;;;2.40;1.20;;;-8.70;99.90;;;;;;2220471;64;20545;-43
2022/01/21 04:29:44;;;;;;;2.77;0.67;;;-8.70;99.90;;;;;;2220342;64;20095;-38
2022/01/21 04:32:10;;;;;;;3.43;1.53;;;-8.70;99.90;;;;;;2220783;64;20092;-36
2022/01/21 04:34:37;;;;;;;4.87;1.60;;;-8.70;99.90;;;;;;2220368;64;20178;-36
2022/01/21 04:37:07;;;;;;;2.47;1.13;;;-8.70;99.90;;;;;;2220756;64;20076;-38
2022/01/21 04:39:39;;;;;;;7.73;1.43;;;-8.70;99.90;;;;;;2220561;64;20104;-37
2022/01/21 04:47:34;;;;;;;1.17;0.60;;;-8.70;99.90;;;;;;2220514;64;20085;-39
2022/01/21 04:50:00;;;;;;;5.47;1.07;;;-8.70;99.90;;;;;;2220535;64;20096;-36
2022/01/21 04:52:27;;;;;;;2.43;0.87;;;-8.70;99.90;;;;;;2220118;64;20115;-37
2022/01/21 04:54:53;;;;;;;2.70;1.67;;;-8.70;99.90;;;;;;2216790;64;20100;-38
2022/01/21 04:57:20;;;;;;;4.93;2.03;;;-8.70;99.90;;;;;;2220432;64;20595;-38
2022/01/21 04:59:46;;;;;;;3.60;1.00;;;-8.70;99.90;;;;;;2220596;64;20097;-37
2022/01/21 05:02:13;;;;;;;4.53;1.20;;;-8.70;99.90;;;;;;2220427;64;20092;-38
2022/01/21 05:04:39;;;;;;;2.50;0.80;;;-8.60;99.90;;;;;;2220401;64;20107;-39
2022/01/21 05:07:08;;;;;;;1.93;0.40;;;-8.60;99.90;;;;;;2220332;64;20556;-36
2022/01/21 05:09:35;;;;;;;2.83;1.00;;;-8.60;99.90;;;;;;2220358;64;20174;-37
2022/01/21 05:12:08;;;;;;;4.40;1.37;;;-8.60;99.90;;;;;;2216795;64;20104;-38
2022/01/21 05:14:51;;;;;;;3.00;0.67;;;-8.60;99.90;;;;;;2221177;64;20488;-37
2022/01/21 05:17:18;;;;;;;3.70;0.90;;;-8.60;99.90;;;;;;2220857;64;20500;-40
2022/01/21 05:19:44;;;;;;;3.83;1.17;;;-8.60;99.90;;;;;;2221478;64;20169;-38
2022/01/21 05:22:11;;;;;;;2.60;0.80;;;-8.60;99.90;;;;;;2221123;64;20088;-39
2022/01/21 05:24:37;;;;;;;1.90;0.60;;;-8.60;99.90;;;;;;2221422;64;20109;-38
2022/01/21 05:27:05;;;;;;;3.13;1.17;;;-8.60;99.90;;;;;;2224874;64;20156;-40
2022/01/21 05:29:32;;;;;;;4.10;1.43;;;-8.60;99.90;;;;;;2221257;64;20103;-38
2022/01/21 05:32:00;;;;;;;5.10;1.43;;;-8.60;99.90;;;;;;2224649;64;20076;-40
2022/01/21 05:34:26;;;;;;;7.93;1.80;;;-8.60;99.90;;;;;;2225090;64;20088;-38
2022/01/21 05:36:53;;;;;;;2.10;0.63;;;-8.60;99.90;;;;;;2224947;64;20080;-39
2022/01/21 05:39:20;;;;;;;3.47;0.83;;;-8.60;99.90;;;;;;2225043;64;20097;-37
2022/01/21 05:41:50;;;;;;;3.33;0.93;;;-8.60;99.90;;;;;;2224846;64;20185;-38
2022/01/21 05:46:22;;;;;;;4.10;1.10;;;-8.60;99.90;;;;;;2224976;64;20475;-39
2022/01/21 05:47:05;;;;;;;3.37;1.07;;;-8.60;99.90;;;;;;2224929;64;20548;-37
2022/01/21 05:49:33;;;;;;;3.80;1.17;;;-8.60;99.90;;;;;;2225000;64;20169;-37
2022/01/21 05:52:05;;;;;;;4.03;1.30;;;-8.50;99.90;;;;;;2224658;64;20107;-37
2022/01/21 05:54:31;;;;;;;5.03;1.27;;;-8.60;99.90;;;;;;2225014;64;20421;-36
2022/01/21 05:56:58;;;;;;;12.00;2.10;;;-8.60;99.90;;;;;;2224893;64;20096;-38
2022/01/21 05:59:27;;;;;;;13.77;2.63;;;-8.50;99.90;;;;;;2224828;64;20092;-36
2022/01/21 06:01:53;;;;;;;4.97;1.60;;;-8.60;99.90;;;;;;2224767;64;20080;-38
2022/01/21 06:04:20;;;;;;;10.83;3.03;;;-8.70;99.90;;;;;;2224861;64;20096;-36
2022/01/21 06:06:46;;;;;;;8.33;2.27;;;-8.60;99.90;;;;;;2221126;64;20564;-38
2022/01/21 06:09:12;;;;;;;5.23;1.60;;;-8.70;99.90;;;;;;2221111;64;20540;-39
2022/01/21 06:11:39;;;;;;;7.70;2.23;;;-8.70;99.90;;;;;;2224727;64;20104;-37
2022/01/21 06:14:08;;;;;;;6.10;2.53;;;-8.60;99.90;;;;;;2221047;64;20089;-36
2022/01/21 06:16:35;;;;;;;6.70;2.33;;;-8.70;99.90;;;;;;2224821;64;20091;-36
2022/01/21 06:19:02;;;;;;;7.43;1.93;;;-8.70;99.90;;;;;;2224977;64;20177;-37
2022/01/21 06:21:28;;;;;;;6.10;1.53;;;-8.70;99.90;;;;;;2224795;64;20165;-37
2022/01/21 06:23:55;;;;;;;3.73;1.43;;;-8.70;99.90;;;;;;2224877;64;20256;-37
2022/01/21 06:26:21;;;;;;;4.50;1.43;;;-8.70;99.90;;;;;;2221400;64;20107;-41
2022/01/21 06:28:48;;;;;;;4.97;1.90;;;-8.70;99.90;;;;;;2217059;64;20093;-41
2022/01/21 06:31:14;;;;;;;6.07;1.60;;;-8.80;99.90;;;;;;2220810;64;20109;-41
2022/01/21 06:33:41;;;;;;;6.73;2.07;;;-8.80;99.90;;;;;;2220969;64;20185;-39
2022/01/21 06:36:07;;;;;;;10.37;2.37;;;-8.90;99.90;;;;;;2209637;64;20097;-38
2022/01/21 06:38:35;;;;;;;5.20;1.57;;;-8.90;99.90;;;;;;2220868;64;20163;-38
2022/01/21 06:41:02;;;;;;;7.67;2.80;;;-8.90;99.90;;;;;;2220824;64;20645;-38
2022/01/21 06:43:29;;;;;;;13.87;3.60;;;-9.00;99.90;;;;;;2216873;64;20089;-37
2022/01/21 06:45:55;;;;;;;10.80;3.20;;;-9.10;99.90;;;;;;2220714;64;20088;-37
2022/01/21 06:48:22;;;;;;;8.20;2.73;;;-9.10;99.90;;;;;;2220885;64;20094;-39
2022/01/21 06:50:48;;;;;;;5.27;1.83;;;-9.00;99.90;;;;;;2220627;64;20124;-36
2022/01/21 06:53:15;;;;;;;11.00;2.63;;;-9.00;99.90;;;;;;2220790;64;20104;-37
2022/01/21 06:55:41;;;;;;;8.97;2.83;;;-9.00;99.90;;;;;;2220749;64;20103;-38
2022/01/21 06:58:08;;;;;;;10.27;1.90;;;-9.00;99.90;;;;;;2217099;64;20111;-41
2022/01/21 07:00:35;;;;;;;9.53;2.57;;;-9.00;99.90;;;;;;2220696;64;20080;-37
2022/01/21 07:03:01;;;;;;;9.70;2.97;;;-9.00;99.90;;;;;;2220929;64;20156;-37
2022/01/21 07:05:30;;;;;;;3.57;1.20;;;-9.00;99.90;;;;;;2220669;64;20100;-36
2022/01/21 07:07:58;;;;;;;3.43;0.80;;;-8.90;99.90;;;;;;2220810;64;20092;-37
2022/01/21 07:10:27;;;;;;;13.33;2.73;;;-8.90;99.90;;;;;;2220549;64;20076;-38
2022/01/21 07:12:57;;;;;;;6.47;2.27;;;-8.90;99.90;;;;;;2220658;64;20093;-39
2022/01/21 07:15:23;;;;;;;6.87;2.03;;;-8.90;99.90;;;;;;2220596;64;20111;-35
2022/01/21 07:17:52;;;;;;;7.03;1.43;;;-8.90;99.90;;;;;;2220554;64;20105;-36
2022/01/21 07:20:19;;;;;;;8.33;1.60;;;-8.80;99.90;;;;;;2220763;64;20076;-38
2022/01/21 07:22:46;;;;;;;7.03;1.10;;;-8.70;99.90;;;;;;2220730;64;20265;-40
2022/01/21 07:25:14;;;;;;;2.80;1.03;;;-8.60;99.90;;;;;;2221830;64;20108;-40
2022/01/21 07:27:42;;;;;;;2.87;1.20;;;-8.60;99.90;;;;;;2224517;64;20143;-37
2022/01/21 07:30:09;;;;;;;3.17;1.07;;;-8.50;99.90;;;;;;2224501;64;20105;-37
2022/01/21 07:32:35;;;;;;;4.80;1.13;;;-8.40;99.90;;;;;;2224642;64;20069;-37
2022/01/21 07:35:02;;;;;;;0.93;0.50;;;-8.30;99.90;;;;;;2224465;64;20102;-36
2022/01/21 07:37:28;;;;;;;0.90;0.40;;;-8.20;99.90;;;;;;2224673;64;20495;-38
2022/01/21 07:39:55;;;;;;;2.07;0.80;;;-8.10;99.90;;;;;;2214772;64;20081;-40
2022/01/21 07:42:21;;;;;;;2.63;0.73;;;-8.00;99.90;;;;;;2215199;64;20097;-37
2022/01/21 07:44:49;;;;;;;2.40;0.87;;;-8.00;99.90;;;;;;2214934;64;20119;-37
2022/01/21 07:47:15;;;;;;;3.73;1.93;;;-7.90;99.90;;;;;;2215257;64;20105;-36
2022/01/21 07:49:42;;;;;;;2.20;0.40;;;-7.90;99.90;;;;;;2215063;64;20169;-38
2022/01/21 07:52:10;;;;;;;3.07;0.40;;;-7.90;99.90;;;;;;2215021;64;20104;-39
2022/01/21 07:54:36;;;;;;;0.43;0.30;;;-7.80;99.90;;;;;;2215029;64;20604;-39
2022/01/21 07:57:03;;;;;;;1.63;0.80;;;-7.80;99.90;;;;;;2215264;64;20089;-37
2022/01/21 07:59:29;;;;;;;0.53;0.40;;;-7.80;99.90;;;;;;2215156;64;20542;-38
2022/01/21 08:01:57;;;;;;;2.87;0.90;;;-7.70;99.90;;;;;;2215222;64;20085;-38
2022/01/21 08:04:23;;;;;;;2.30;0.50;;;-7.70;99.90;;;;;;2215113;64;20103;-37
2022/01/21 08:06:50;;;;;;;1.60;0.50;;;-7.60;99.90;;;;;;2215171;64;20097;-37
2022/01/21 08:09:16;;;;;;;3.63;1.20;;;-7.70;99.90;;;;;;2215144;64;20213;-36
2022/01/21 08:11:43;;;;;;;1.60;0.53;;;-7.60;99.90;;;;;;2215157;64;20090;-40
2022/01/21 08:14:09;;;;;;;4.20;0.60;;;-7.60;99.90;;;;;;2215019;64;20111;-37
2022/01/21 08:16:36;;;;;;;2.57;0.50;;;-7.60;99.90;;;;;;2215800;64;20177;-38
2022/01/21 08:19:04;;;;;;;2.03;0.63;;;-7.50;99.90;;;;;;2220557;64;20093;-39
2022/01/21 08:21:30;;;;;;;1.97;0.73;;;-7.40;99.90;;;;;;2220677;64;20104;-38
2022/01/21 08:23:57;;;;;;;2.17;0.50;;;-7.40;99.90;;;;;;2220481;64;20151;-42
2022/01/21 08:26:25;;;;;;;2.57;0.67;;;-7.50;99.90;;;;;;2217472;64;20581;-36
2022/01/21 08:28:52;;;;;;;5.23;0.80;;;-7.50;99.90;;;;;;2216562;64;20165;-36
2022/01/21 08:31:19;;;;;;;2.73;0.80;;;-7.50;99.90;;;;;;2216558;64;20096;-37
2022/01/21 08:33:45;;;;;;;7.40;0.50;;;-7.50;99.90;;;;;;2216662;64;20093;-40
2022/01/21 08:36:12;;;;;;;3.27;0.53;;;-7.50;99.90;;;;;;2216762;64;20477;-37
2022/01/21 08:38:40;;;;;;;1.60;0.43;;;-7.70;99.90;;;;;;2216426;64;20097;-40
2022/01/21 08:41:07;;;;;;;0.97;0.43;;;-7.60;99.90;;;;;;2216645;64;20170;-36
2022/01/21 08:43:34;;;;;;;2.10;0.63;;;-7.50;99.90;;;;;;2216617;64;20104;-38
2022/01/21 08:46:00;;;;;;;1.50;0.53;;;-7.40;99.90;;;;;;2216713;64;20104;-36
2022/01/21 08:48:27;;;;;;;1.50;0.70;;;-7.40;99.90;;;;;;2217411;64;20109;-37
2022/01/21 08:50:55;;;;;;;0.90;0.30;;;-7.40;99.90;;;;;;2217573;64;20097;-39
2022/01/21 08:53:38;;;;;;;2.20;0.30;;;-7.40;99.90;;;;;;2219424;64;20108;-39
2022/01/21 08:56:10;;;;;;;3.43;0.40;;;-7.30;99.90;;;;;;2221309;64;20113;-37
2022/01/21 08:58:37;;;;;;;1.70;0.50;;;-7.30;99.90;;;;;;2220801;64;20165;-38
2022/01/21 09:01:04;;;;;;;3.30;0.60;;;-7.30;99.90;;;;;;2221256;64;20081;-36
2022/01/21 09:03:30;;;;;;;3.03;0.73;;;-7.30;99.90;;;;;;2217068;64;20097;-37
2022/01/21 09:05:57;;;;;;;0.67;0.30;;;-7.20;99.90;;;;;;2221350;64;20128;-38
2022/01/21 09:08:25;;;;;;;0.90;0.50;;;-7.20;99.90;;;;;;2217074;64;20488;-37
2022/01/21 09:10:55;;;;;;;2.30;0.60;;;-7.20;99.90;;;;;;2221118;64;20089;-37
2022/01/21 09:13:22;;;;;;;1.03;0.53;;;-7.20;99.90;;;;;;2220994;64;20092;-39
2022/01/21 09:15:51;;;;;;;4.23;0.70;;;-7.20;99.90;;;;;;2221218;64;20181;-36
2022/01/21 09:18:20;;;;;;;4.83;0.60;;;-7.10;99.90;;;;;;2220992;64;20168;-38
2022/01/21 09:20:46;;;;;;;1.60;0.47;;;-7.00;99.90;;;;;;2221057;64;20460;-38
2022/01/21 09:23:13;;;;;;;3.93;1.00;;;-7.10;99.90;;;;;;2221022;64;20449;-38
2022/01/21 09:25:39;;;;;;;1.47;0.60;;;-7.10;99.90;;;;;;2211943;64;20619;-37
2022/01/21 09:28:06;;;;;;;1.07;0.67;;;-7.00;99.90;;;;;;2224747;64;20084;-40
2022/01/21 09:30:32;;;;;;;0.63;0.40;;;-7.00;99.90;;;;;;2224896;64;20084;-39
2022/01/21 09:32:59;;;;;;;0.73;0.50;;;-7.00;99.90;;;;;;2225015;64;20096;-37
2022/01/21 09:35:26;;;;;;;1.77;0.50;;;-7.00;99.90;;;;;;2225039;64;20099;-36
2022/01/21 09:37:52;;;;;;;1.83;0.60;;;-7.00;99.90;;;;;;2224963;64;20110;-37
2022/01/21 09:40:19;;;;;;;3.87;1.00;;;-7.10;99.90;;;;;;2224840;64;20591;-39
2022/01/21 09:42:45;;;;;;;2.37;0.80;;;-7.00;99.90;;;;;;2224720;64;20096;-36
2022/01/21 09:45:13;;;;;;;2.83;0.77;;;-7.10;99.90;;;;;;2224695;64;20092;-37
2022/01/21 09:47:48;;;;;;;1.27;0.60;;;-7.20;99.90;;;;;;2225028;64;20104;-37
2022/01/21 09:50:16;;;;;;;3.53;0.87;;;-7.20;99.90;;;;;;2224907;64;20536;-38
2022/01/21 09:52:51;;;;;;;2.87;1.30;;;-7.20;99.90;;;;;;2224608;64;20104;-37
2022/01/21 09:55:21;;;;;;;2.45;0.77;;;-7.30;99.90;;;;;;2224748;64;20100;-36
2022/01/21 09:57:48;;;;;;;0.80;0.50;;;-7.20;99.90;;;;;;2224814;64;20522;-37
2022/01/21 10:00:18;;;;;;;1.00;0.50;;;-7.20;99.90;;;;;;2224807;64;20088;-38
2022/01/21 10:02:45;;;;;;;2.73;0.80;;;-7.30;99.90;;;;;;2224810;64;20123;-37
2022/01/21 10:05:12;;;;;;;1.37;0.70;;;-7.40;99.90;;;;;;2220996;64;20180;-37
2022/01/21 10:07:44;;;;;;;3.23;1.43;;;-7.40;99.90;;;;;;2224811;64;20100;-39
2022/01/21 10:10:10;;;;;;;2.23;1.13;;;-7.40;99.90;;;;;;2210593;64;20115;-39
2022/01/21 10:12:39;;;;;;;1.90;0.63;;;-7.40;99.90;;;;;;2224736;64;20234;-40
2022/01/21 10:15:09;;;;;;;1.63;0.60;;;-7.50;99.90;;;;;;2224777;64;20092;-38
2022/01/21 10:17:36;;;;;;;1.47;1.00;;;-7.50;99.90;;;;;;2224591;64;20217;-39
2022/01/21 10:20:20;;;;;;;2.30;0.60;;;-7.60;99.90;;;;;;2224921;64;20088;-43
2022/01/21 10:23:06;;;;;;;2.17;0.50;;;-7.60;99.90;;;;;;2224765;64;20169;-39
2022/01/21 10:25:33;;;;;;;1.60;0.70;;;-7.70;99.90;;;;;;2222488;64;20496;-39
2022/01/21 10:28:19;;;;;;;1.83;0.87;;;-7.70;99.90;;;;;;2220926;64;20123;-39
2022/01/21 10:30:46;;;;;;;2.37;0.70;;;-7.70;99.90;;;;;;2220822;64;20080;-38
2022/01/21 10:33:21;;;;;;;3.07;0.90;;;-7.70;99.90;;;;;;2220982;64;20080;-40
2022/01/21 10:35:49;;;;;;;1.63;0.63;;;-7.70;99.90;;;;;;2220858;64;20081;-39
2022/01/21 10:38:24;;;;;;;1.70;0.70;;;-7.70;99.90;;;;;;2220974;64;20155;-41
2022/01/21 10:40:50;;;;;;;6.10;1.05;;;-7.70;99.90;;;;;;2220771;64;20135;-37
2022/01/21 10:43:19;;;;;;;3.53;1.93;;;-7.70;99.90;;;;;;2220964;64;20162;-37
2022/01/21 10:45:49;;;;;;;2.03;0.80;;;-7.70;99.90;;;;;;2220819;64;20689;-41
2022/01/21 10:48:16;;;;;;;2.27;1.33;;;-7.70;99.90;;;;;;2220807;64;20164;-41
2022/01/21 10:50:42;;;;;;;4.90;1.13;;;-7.80;99.90;;;;;;2220719;64;20092;-42
2022/01/21 10:53:24;;;;;;;3.50;0.90;;;-7.90;99.90;;;;;;2220764;64;20127;-41
2022/01/21 10:55:51;;;;;;;4.13;1.30;;;-7.90;99.90;;;;;;2217410;64;20088;-43
2022/01/21 10:58:21;;;;;;;1.73;0.67;;;-7.90;99.90;;;;;;2220774;64;20115;-41
2022/01/21 11:01:06;;;;;;;2.10;1.00;;;-7.80;99.90;;;;;;2216966;64;20135;-37
2022/01/21 11:03:33;;;;;;;2.20;0.97;;;-7.80;99.90;;;;;;2220666;64;20525;-37
2022/01/21 11:06:36;;;;;;;6.17;1.40;;;-7.70;99.90;;;;;;2220751;64;20107;-39
2022/01/21 11:09:19;;;;;;;2.33;0.73;;;-7.80;99.90;;;;;;2199746;65;20091;-40
2022/01/21 11:12:09;;;;;;;0.90;0.60;;;-7.70;99.90;;;;;;2195812;65;20109;-39
2022/01/21 11:14:37;;;;;;;3.67;1.60;;;-7.70;99.90;;;;;;2195949;65;20095;-39
2022/01/21 11:17:08;;;;;;;2.60;1.27;;;-7.70;99.90;;;;;;2196105;65;20083;-39
2022/01/21 11:19:35;;;;;;;5.43;1.63;;;-7.70;99.90;;;;;;2195824;65;20230;-39
2022/01/21 11:22:04;;;;;;;2.77;1.10;;;-7.70;99.90;;;;;;2196070;65;20165;-37
2022/01/21 11:24:31;;;;;;;2.13;1.17;;;-7.70;99.90;;;;;;2195969;65;20170;-37
2022/01/21 11:27:14;;;;;;;2.63;1.10;;;-7.70;99.90;;;;;;2199742;65;20099;-39
2022/01/21 11:29:42;;;;;;;2.50;1.20;;;-7.70;99.90;;;;;;2199763;65;20569;-39
2022/01/21 11:32:09;;;;;;;6.37;1.07;;;-7.80;99.90;;;;;;2199793;65;20106;-41
2022/01/21 11:34:36;;;;;;;4.37;1.63;;;-7.70;99.90;;;;;;2199926;65;20082;-40
2022/01/21 11:37:03;;;;;;;5.63;1.50;;;-7.60;99.90;;;;;;2199923;65;20087;-38
2022/01/21 11:39:30;;;;;;;2.87;0.80;;;-7.60;99.90;;;;;;2199630;65;20106;-40
2022/01/21 11:41:57;;;;;;;2.27;1.17;;;-7.50;99.90;;;;;;2200289;65;20097;-41
2022/01/21 11:44:26;;;;;;;2.57;0.83;;;-7.50;99.90;;;;;;2201885;64;20098;-40
2022/01/21 11:47:15;;;;;;;3.10;1.30;;;-7.40;99.90;;;;;;2220793;64;20471;-38
2022/01/21 11:49:43;;;;;;;1.83;1.40;;;-7.40;99.90;;;;;;2218448;64;20201;-39
2022/01/21 11:52:18;;;;;;;1.20;0.70;;;-7.40;99.90;;;;;;2224469;64;20111;-40
2022/01/21 11:54:45;;;;;;;3.13;1.10;;;-7.40;99.90;;;;;;2224528;64;20088;-39
2022/01/21 11:57:12;;;;;;;1.17;0.47;;;-7.40;99.90;;;;;;2224347;64;20252;-37
2022/01/21 12:00:07;;;;;;;2.60;0.93;;;-7.30;99.90;;;;;;2224309;64;20160;-41
2022/01/21 12:02:34;;;;;;;2.22;1.10;;;-7.20;99.90;;;;;;2224657;64;20159;-37
2022/01/21 12:05:08;;;;;;;1.77;0.50;;;-7.40;99.90;;;;;;2224196;64;20111;-39
2022/01/21 12:07:36;;;;;;;2.80;0.80;;;-7.50;99.90;;;;;;2224449;64;20088;-39
2022/01/21 12:10:19;;;;;;;2.50;0.70;;;-7.50;99.90;;;;;;2224337;64;20072;-40
2022/01/21 12:13:01;;;;;;;3.10;1.10;;;-7.50;99.90;;;;;;2220932;64;20118;-38
2022/01/21 12:15:36;;;;;;;5.47;1.33;;;-7.50;99.90;;;;;;2224313;64;20092;-42
2022/01/21 12:18:57;;;;;;;5.33;1.03;;;-7.60;99.90;;;;;;2224468;64;20084;-39
2022/01/21 12:21:31;;;;;;;2.77;1.20;;;-7.60;99.90;;;;;;2224329;64;20091;-43
2022/01/21 12:23:57;;;;;;;3.53;1.50;;;-7.60;99.90;;;;;;2224332;64;20099;-41
2022/01/21 12:26:24;;;;;;;3.77;1.80;;;-7.50;99.90;;;;;;2224403;64;20090;-38
2022/01/21 12:28:59;;;;;;;4.67;1.80;;;-7.60;99.90;;;;;;2211004;64;20102;-40
2022/01/21 12:31:44;;;;;;;4.60;1.50;;;-7.60;99.90;;;;;;2211132;64;20560;-37
2022/01/21 12:34:14;;;;;;;2.23;0.87;;;-7.60;99.90;;;;;;2211060;64;20145;-39
2022/01/21 12:37:12;;;;;;;5.03;1.77;;;-7.60;99.90;;;;;;2211329;64;20077;-41
2022/01/21 12:39:43;;;;;;;2.80;1.47;;;-7.60;99.90;;;;;;2203272;65;20098;-38
2022/01/21 12:42:35;;;;;;;2.77;1.07;;;-7.70;99.90;;;;;;2203576;65;20074;-38
2022/01/21 12:45:07;;;;;;;4.13;0.97;;;-7.60;99.90;;;;;;2203303;65;20114;-39
2022/01/21 12:47:43;;;;;;;2.10;0.90;;;-7.70;99.90;;;;;;2203475;65;20094;-42
2022/01/21 12:50:14;;;;;;;1.50;0.70;;;-7.70;99.90;;;;;;2200045;65;20522;-39
2022/01/21 12:56:02;;;;;;;1.87;1.10;;;-7.60;99.90;;;;;;2199463;65;20117;-37
2022/01/21 12:58:39;;;;;;;1.25;0.75;;;-7.60;99.90;;;;;;2199217;65;20633;-41
2022/01/21 13:01:11;;;;;;;3.60;1.67;;;-7.60;99.90;;;;;;2206740;64;20158;-39
2022/01/21 13:03:49;;;;;;;2.43;1.30;;;-7.60;99.90;;;;;;2207240;64;20090;-37
2022/01/21 13:06:21;;;;;;;2.10;1.00;;;-7.60;99.90;;;;;;2207217;64;20097;-36
2022/01/21 13:09:08;;;;;;;1.40;0.60;;;-7.60;99.90;;;;;;2207232;64;20098;-39
2022/01/21 13:11:41;;;;;;;3.30;1.03;;;-7.60;99.90;;;;;;2207231;64;20133;-36
2022/01/21 13:17:00;;;;;;;3.80;1.93;;;-7.60;99.90;;;;;;2206409;64;20174;-38
2022/01/21 13:19:30;;;;;;;2.90;1.33;;;-7.60;99.90;;;;;;2207117;64;20341;-38
2022/01/21 13:21:57;;;;;;;3.40;1.23;;;-7.60;99.90;;;;;;2207167;64;20129;-38
2022/01/21 13:24:31;;;;;;;3.83;1.70;;;-7.70;99.90;;;;;;2203648;64;20086;-38
2022/01/21 13:26:58;;;;;;;2.83;1.25;;;-7.70;99.90;;;;;;2203368;65;20109;-37
2022/01/21 13:29:32;;;;;;;2.43;1.20;;;-7.70;99.90;;;;;;2203365;64;20494;-36
2022/01/21 13:31:59;;;;;;;1.92;0.65;;;-7.70;99.90;;;;;;2203414;65;20097;-40
2022/01/21 13:34:31;;;;;;;3.53;1.50;;;-7.70;99.90;;;;;;2203811;64;20091;-38
2022/01/21 13:37:01;;;;;;;3.13;1.10;;;-7.70;99.90;;;;;;2204104;64;20133;-38
2022/01/21 13:39:33;;;;;;;3.10;1.20;;;-7.60;99.90;;;;;;2203809;64;20563;-39
2022/01/21 13:42:01;;;;;;;2.23;1.10;;;-7.70;99.90;;;;;;2203925;65;20117;-36
2022/01/21 13:44:41;;;;;;;2.33;1.17;;;-7.70;99.90;;;;;;2203709;64;20086;-39
2022/01/21 13:47:41;;;;;;;3.03;0.93;;;-7.60;99.90;;;;;;2204001;65;20098;-37
2022/01/21 13:50:17;;;;;;;2.23;1.30;;;-7.60;99.90;;;;;;2203883;65;20559;-38
2022/01/21 13:52:46;;;;;;;1.97;0.97;;;-7.60;99.90;;;;;;2214362;64;20638;-38